Time;durP1;ratioP1;P1;durP2;ratioP2;P2;SDS_P1;SDS_P2;PMS_P1;PMS_P2;Temp;Humidity;BMP_temperature;BMP_pressure;BME280_temperature;BME280_humidity;BME280_pressure;Samples;Min_cycle;Max_cycle;Signal;HPM_P1;HPM_P2
2022/08/14 00:02:13;;;;;;;3.65;1.63;;;17.00;93.20;;;16.54;100.00;97182.53;4943397;28;20414;-65
2022/08/14 00:04:41;;;;;;;2.28;1.50;;;17.10;93.40;;;16.63;100.00;97176.63;4941840;28;20058;-64
2022/08/14 00:07:11;;;;;;;3.70;2.10;;;17.10;93.00;;;16.43;100.00;97169.38;4953928;28;20050;-65
2022/08/14 00:09:44;;;;;;;2.30;1.50;;;17.20;93.30;;;16.54;100.00;97166.81;4958356;28;20094;-64
2022/08/14 00:12:34;;;;;;;2.47;1.40;;;17.10;93.10;;;16.65;100.00;97172.09;4944312;28;20321;-65
2022/08/14 00:15:23;;;;;;;4.30;1.92;;;17.20;93.20;;;16.68;100.00;97176.28;4941915;29;20560;-65
2022/08/14 00:17:52;;;;;;;5.25;1.30;;;17.30;92.90;;;16.77;100.00;97169.53;4940059;28;20134;-64
2022/08/14 00:20:25;;;;;;;3.92;1.60;;;17.30;92.60;;;16.66;100.00;97173.75;4942233;28;20055;-64
2022/08/14 00:22:58;;;;;;;2.30;1.50;;;17.40;92.80;;;16.72;100.00;97167.25;4958243;28;20403;-65
2022/08/14 00:25:46;;;;;;;3.78;1.63;;;17.40;92.80;;;16.82;100.00;97160.41;4957796;28;20050;-65
2022/08/14 00:28:34;;;;;;;6.32;1.38;;;17.40;92.80;;;16.70;100.00;97145.56;4942636;28;20126;-65
2022/08/14 00:31:05;;;;;;;4.00;1.63;;;17.40;92.80;;;16.60;100.00;97150.63;4942300;29;20051;-65
2022/08/14 00:33:34;;;;;;;3.35;1.50;;;17.40;92.90;;;16.60;100.00;97139.31;4956672;28;20062;-63
2022/08/14 00:36:22;;;;;;;2.78;1.40;;;17.30;93.10;;;16.70;100.00;97121.97;4951904;28;20079;-63
2022/08/14 00:39:13;;;;;;;4.10;1.60;;;17.30;93.40;;;16.61;100.00;97099.09;4954501;28;20051;-63
2022/08/14 00:41:46;;;;;;;4.25;1.67;;;17.20;93.30;;;16.62;100.00;97095.50;4942516;28;20090;-63
2022/08/14 00:44:13;;;;;;;2.63;1.30;;;17.30;93.30;;;16.71;100.00;97090.41;4942604;28;20047;-63
2022/08/14 00:46:48;;;;;;;4.05;1.60;;;17.30;93.50;;;16.47;100.00;97092.25;4942264;28;20549;-63
2022/08/14 00:49:16;;;;;;;4.50;1.67;;;17.20;93.50;;;16.43;100.00;97102.09;4943609;28;20039;-63
2022/08/14 00:51:47;;;;;;;3.30;1.83;;;17.10;93.70;;;16.41;100.00;97090.91;4954165;28;20077;-63
2022/08/14 00:54:25;;;;;;;3.60;1.63;;;17.10;93.90;;;16.67;100.00;97080.25;4940744;28;20043;-66
2022/08/14 00:56:53;;;;;;;2.63;1.20;;;17.20;93.40;;;16.97;100.00;97082.41;4954839;28;20102;-63
2022/08/14 00:59:27;;;;;;;1.75;1.30;;;17.30;92.90;;;17.13;100.00;97076.81;4940224;28;20054;-63
2022/08/14 01:01:58;;;;;;;2.45;1.23;;;17.50;92.90;;;17.40;100.00;97065.94;4943820;28;20067;-64
2022/08/14 01:04:28;;;;;;;3.80;1.50;;;17.70;92.20;;;16.90;100.00;97074.16;4958410;28;20468;-63
2022/08/14 01:07:20;;;;;;;8.32;1.50;;;17.70;92.30;;;17.04;100.00;97069.66;4941490;28;20051;-63
2022/08/14 01:09:59;;;;;;;2.28;1.33;;;17.60;92.50;;;17.20;100.00;97064.06;4941769;28;20118;-63
2022/08/14 01:12:28;;;;;;;4.20;1.20;;;17.60;92.60;;;17.16;100.00;97076.56;4958564;28;20052;-63
2022/08/14 01:15:07;;;;;;;2.28;1.10;;;17.70;92.40;;;17.50;100.00;97081.81;4947491;28;20465;-63
2022/08/14 01:23:13;;;;;;;4.40;1.10;;;18.00;91.70;;;17.54;100.00;97057.00;4955563;28;20078;-63
2022/08/14 01:25:46;;;;;;;2.22;1.33;;;18.00;91.80;;;17.52;100.00;97044.00;4943302;28;20847;-63
2022/08/14 01:28:13;;;;;;;2.42;1.35;;;18.00;91.90;;;17.40;100.00;97044.13;4944388;28;20075;-63
2022/08/14 01:31:04;;;;;;;2.33;1.35;;;18.00;92.00;;;17.00;100.00;97058.56;4943849;28;20275;-63
2022/08/14 01:33:33;;;;;;;7.18;1.60;;;18.00;92.00;;;17.19;100.00;97052.72;4939449;28;20166;-65
2022/08/14 01:36:20;;;;;;;2.13;1.20;;;17.90;92.40;;;17.35;100.00;97050.56;4941945;28;20050;-65
2022/08/14 01:38:50;;;;;;;2.42;1.23;;;17.80;92.60;;;17.40;100.00;97038.88;4938525;28;20047;-66
2022/08/14 01:41:20;;;;;;;1.83;1.10;;;17.90;92.50;;;17.44;100.00;97046.38;4941670;28;20134;-65
2022/08/14 01:44:01;;;;;;;3.03;1.00;;;18.00;92.50;;;17.55;100.00;97041.13;4940773;28;20048;-65
2022/08/14 01:46:34;;;;;;;2.22;1.20;;;18.00;92.40;;;17.40;100.00;97044.94;4940898;28;20083;-65
2022/08/14 01:49:08;;;;;;;2.30;1.20;;;18.00;92.30;;;17.29;100.00;97045.81;4940418;28;20050;-65
2022/08/14 01:51:38;;;;;;;2.30;1.40;;;18.00;92.40;;;17.31;100.00;97035.19;4939640;28;20146;-65
2022/08/14 01:54:11;;;;;;;3.50;1.80;;;18.00;92.40;;;17.29;100.00;97042.34;4941988;28;20070;-65
2022/08/14 01:56:41;;;;;;;3.92;1.38;;;18.00;92.60;;;17.41;100.00;97037.94;4937494;28;20516;-65
2022/08/14 01:59:16;;;;;;;4.55;1.60;;;18.00;92.60;;;17.47;100.00;97033.03;4938519;28;20184;-65
2022/08/14 02:01:50;;;;;;;2.17;1.10;;;18.00;92.80;;;17.38;100.00;97033.75;4938989;28;20049;-65
2022/08/14 02:04:30;;;;;;;3.78;1.52;;;17.90;92.90;;;17.35;100.00;97037.44;4937985;28;20126;-65
2022/08/14 02:07:19;;;;;;;4.00;1.45;;;17.90;92.90;;;17.14;100.00;97024.22;4937884;28;20078;-65
2022/08/14 02:10:08;;;;;;;3.70;1.50;;;17.80;93.10;;;17.11;100.00;97027.09;4939578;28;20058;-65
2022/08/14 02:12:39;;;;;;;;;;;17.70;93.40;;;16.96;100.00;97028.28;4954873;28;20543;-64
2022/08/14 02:15:10;;;;;;;3.10;1.48;;;17.60;94.10;;;16.86;100.00;97020.28;4942212;28;19929;-65
2022/08/14 02:17:37;;;;;;;3.55;2.03;;;17.60;93.80;;;16.66;100.00;97027.03;4941347;28;20721;-65
2022/08/14 02:20:07;;;;;;;3.70;1.50;;;17.50;94.10;;;16.61;100.00;97025.72;4954208;28;20051;-65
2022/08/14 02:22:34;;;;;;;2.30;1.50;;;17.40;94.20;;;16.67;100.00;97030.47;4939337;29;20098;-65
2022/08/14 02:25:14;;;;;;;2.63;1.70;;;17.20;94.40;;;16.69;100.00;97026.81;4939478;28;20056;-65
2022/08/14 02:27:44;;;;;;;3.92;2.00;;;17.20;94.80;;;16.66;100.00;97036.69;4940924;28;20125;-65
2022/08/14 02:30:32;;;;;;;1.50;1.15;;;17.20;95.10;;;16.70;100.00;97030.25;4938454;29;20071;-65
2022/08/14 02:33:00;;;;;;;2.90;1.80;;;17.10;95.10;;;16.63;100.00;97026.44;4942520;28;20047;-65
2022/08/14 02:35:27;;;;;;;4.93;1.83;;;17.10;95.40;;;16.53;100.00;97028.91;4957586;28;20485;-65
2022/08/14 02:37:59;;;;;;;3.78;1.85;;;17.10;95.60;;;16.55;100.00;97032.25;4939091;29;20047;-65
2022/08/14 02:40:31;;;;;;;4.18;1.83;;;17.00;95.50;;;16.44;100.00;97038.28;4938661;28;20048;-65
2022/08/14 02:43:01;;;;;;;3.63;1.70;;;17.00;95.60;;;16.21;100.00;97028.69;4956995;28;20073;-65
2022/08/14 02:45:33;;;;;;;3.47;2.00;;;16.90;96.10;;;16.19;100.00;97039.25;4939925;28;20508;-65
2022/08/14 02:48:13;;;;;;;3.70;1.83;;;16.80;96.60;;;16.23;100.00;97035.47;4938044;28;20118;-65
2022/08/14 02:51:06;;;;;;;4.10;2.20;;;16.80;96.60;;;16.12;100.00;97040.66;4950690;28;20055;-65
2022/08/14 02:53:38;;;;;;;3.92;1.90;;;16.90;96.70;;;16.13;100.00;97033.69;4940089;28;20146;-65
2022/08/14 02:56:09;;;;;;;3.83;1.98;;;16.80;97.00;;;16.09;100.00;97036.50;4937911;29;20130;-65
2022/08/14 02:59:00;;;;;;;4.55;2.30;;;16.70;97.70;;;16.00;100.00;97036.34;4939720;29;20047;-65
2022/08/14 03:01:32;;;;;;;5.63;2.97;;;16.60;98.50;;;15.89;100.00;97042.34;4949568;28;20559;-65
2022/08/14 03:04:11;;;;;;;5.57;2.72;;;16.50;98.80;;;15.82;100.00;97036.72;4940361;28;20044;-65
2022/08/14 03:06:42;;;;;;;4.50;2.60;;;16.50;99.10;;;15.77;100.00;97038.03;4953823;28;20055;-65
2022/08/14 03:09:24;;;;;;;4.03;2.55;;;16.40;99.90;;;15.69;100.00;97036.75;4953173;28;20079;-65
2022/08/14 03:12:11;;;;;;;3.10;2.30;;;16.30;99.90;;;15.76;100.00;97033.72;4939361;29;20062;-65
2022/08/14 03:14:47;;;;;;;3.72;2.35;;;16.30;99.90;;;15.73;100.00;97039.19;4942241;28;20131;-65
2022/08/14 03:17:15;;;;;;;2.90;2.22;;;16.40;99.90;;;15.58;100.00;97035.88;4937860;28;20128;-65
2022/08/14 03:19:43;;;;;;;3.10;2.20;;;16.40;99.90;;;15.31;100.00;97023.78;4940870;28;20118;-65
2022/08/14 03:22:10;;;;;;;5.22;2.97;;;16.30;99.90;;;15.17;100.00;97030.00;4954377;28;20061;-65
2022/08/14 03:24:43;;;;;;;5.13;2.80;;;16.20;99.90;;;15.02;100.00;97033.66;4944893;29;20436;-65
2022/08/14 03:27:12;;;;;;;4.25;2.78;;;16.00;99.90;;;14.98;100.00;97029.59;4944337;28;20389;-65
2022/08/14 03:29:39;;;;;;;4.18;2.70;;;15.90;99.90;;;15.12;100.00;97039.94;4945110;29;20492;-65
2022/08/14 03:32:07;;;;;;;6.25;2.40;;;15.80;99.90;;;15.19;100.00;97028.13;4941963;28;20052;-65
2022/08/14 03:34:34;;;;;;;4.28;2.70;;;15.80;99.90;;;15.16;100.00;97028.31;4944772;29;20145;-64
2022/08/14 03:37:14;;;;;;;4.70;2.58;;;15.80;99.90;;;15.25;100.00;97030.28;4943823;28;20158;-65
2022/08/14 03:40:01;;;;;;;4.00;2.83;;;15.90;99.90;;;15.03;100.00;97030.97;4943324;28;20054;-65
2022/08/14 03:42:28;;;;;;;7.75;3.20;;;15.80;99.90;;;15.11;100.00;97032.19;4956485;28;20423;-65
2022/08/14 03:45:05;;;;;;;4.20;3.00;;;15.80;99.90;;;14.87;100.00;97029.50;4941685;29;20078;-65
2022/08/14 03:47:52;;;;;;;6.10;3.47;;;15.70;99.90;;;14.88;100.00;97032.00;4947647;28;20528;-65
2022/08/14 03:50:24;;;;;;;8.40;3.22;;;15.60;99.90;;;14.92;100.00;97024.81;4940262;29;20062;-65
2022/08/14 03:53:01;;;;;;;4.60;3.03;;;15.50;99.90;;;15.01;100.00;97029.41;4944826;29;20106;-65
2022/08/14 03:55:29;;;;;;;4.20;2.97;;;15.60;99.90;;;14.80;100.00;97032.53;4941909;28;20114;-65
2022/08/14 03:57:58;;;;;;;4.53;2.97;;;15.70;99.90;;;14.93;100.00;97042.16;4945096;29;20074;-65
2022/08/14 04:00:28;;;;;;;6.82;3.47;;;15.60;99.90;;;14.79;100.00;97036.06;4957304;28;20051;-64
2022/08/14 04:03:11;;;;;;;4.15;3.10;;;15.50;99.90;;;14.91;100.00;97046.63;4942524;29;20220;-65
2022/08/14 04:05:43;;;;;;;6.00;3.40;;;15.50;99.90;;;15.00;100.00;97048.63;4944913;28;20071;-65
2022/08/14 04:08:16;;;;;;;7.45;3.78;;;15.60;99.90;;;15.01;100.00;97051.13;4946079;28;20106;-65
2022/08/14 04:10:58;;;;;;;7.13;3.38;;;15.60;99.90;;;14.98;100.00;97059.16;4942094;29;20054;-65
2022/08/14 04:13:29;;;;;;;4.70;3.17;;;15.60;99.90;;;15.01;100.00;97060.75;4944142;28;20079;-65
2022/08/14 04:16:21;;;;;;;5.95;3.47;;;15.60;99.90;;;15.09;100.00;97055.00;4939311;28;20141;-65
2022/08/14 04:18:52;;;;;;;5.10;3.38;;;15.60;99.90;;;15.20;100.00;97048.06;4942460;29;20050;-65
2022/08/14 04:21:23;;;;;;;7.63;3.70;;;15.70;99.90;;;15.22;100.00;97040.13;4940559;28;20524;-65
2022/08/14 04:23:52;;;;;;;5.10;3.78;;;15.80;99.90;;;15.13;100.00;97033.75;4942799;29;20789;-65
2022/08/14 04:26:26;;;;;;;6.25;3.45;;;15.80;99.90;;;15.21;100.00;97035.81;4941692;28;20056;-65
2022/08/14 04:29:11;;;;;;;6.30;3.45;;;15.80;99.90;;;15.17;100.00;97050.09;4954365;28;20044;-65
2022/08/14 04:31:43;;;;;;;4.85;3.13;;;15.90;99.90;;;14.95;100.00;97048.09;4940797;28;20496;-65
2022/08/14 04:34:30;;;;;;;5.13;4.00;;;15.90;99.90;;;14.95;100.00;97054.16;4943140;29;20070;-65
2022/08/14 04:45:25;;;;;;;5.13;4.03;;;15.80;99.90;;;15.00;100.00;97049.44;4945072;28;20079;-65
2022/08/14 04:48:14;;;;;;;4.65;3.75;;;15.70;99.90;;;15.08;100.00;97056.78;4956729;28;20051;-65
2022/08/14 04:51:05;;;;;;;5.40;4.07;;;15.70;99.90;;;15.14;100.00;97055.50;4943684;29;20051;-65
2022/08/14 04:53:34;;;;;;;6.43;4.05;;;15.80;99.90;;;15.25;100.00;97055.59;4938019;29;20523;-65
2022/08/14 04:56:07;;;;;;;9.10;4.47;;;15.90;99.90;;;15.19;100.00;97056.00;4943609;29;20131;-65
2022/08/14 04:58:59;;;;;;;7.18;4.07;;;15.90;99.90;;;15.13;100.00;97052.06;4935607;28;20040;-65
2022/08/14 05:01:29;;;;;;;7.38;4.55;;;15.90;99.90;;;15.10;100.00;97061.88;4955188;28;20047;-65
2022/08/14 05:04:07;;;;;;;4.85;3.70;;;15.80;99.90;;;15.24;100.00;97062.59;4938405;28;20055;-65
2022/08/14 05:06:42;;;;;;;5.07;3.30;;;15.90;99.90;;;15.34;100.00;97060.19;4937570;28;20118;-64
2022/08/14 05:09:09;;;;;;;5.72;4.05;;;16.00;99.90;;;15.33;100.00;97061.13;4939795;28;20065;-65
2022/08/14 05:11:41;;;;;;;8.75;4.50;;;16.00;99.90;;;15.42;100.00;97062.28;4943743;28;20058;-65
2022/08/14 05:14:11;;;;;;;4.55;3.88;;;16.00;99.90;;;15.56;100.00;97056.91;4952927;28;20476;-65
2022/08/14 05:16:58;;;;;;;4.10;3.65;;;16.20;99.90;;;15.77;100.00;97053.72;4951560;28;20047;-65
2022/08/14 05:19:28;;;;;;;7.38;3.90;;;16.40;99.90;;;15.71;100.00;97044.50;4940814;29;20565;-65
2022/08/14 05:21:58;;;;;;;5.15;3.75;;;16.50;99.90;;;15.78;100.00;97050.13;4941627;28;20073;-65
2022/08/14 05:24:48;;;;;;;5.18;3.95;;;16.50;99.90;;;15.92;100.00;97055.25;4939365;29;20069;-65
2022/08/14 05:27:19;;;;;;;6.45;4.07;;;16.60;99.90;;;16.06;100.00;97044.59;4953860;28;20421;-65
2022/08/14 05:29:51;;;;;;;5.13;4.07;;;16.70;99.90;;;16.14;100.00;97041.41;4943171;28;20048;-64
2022/08/14 05:32:19;;;;;;;5.25;3.60;;;16.90;99.90;;;16.34;100.00;97037.31;4937489;29;20047;-65
2022/08/14 05:34:46;;;;;;;6.50;3.95;;;17.00;99.90;;;16.41;100.00;97025.41;4937781;28;20530;-64
2022/08/14 05:37:13;;;;;;;5.38;4.00;;;17.20;99.90;;;16.59;100.00;97020.59;4951863;28;20126;-62
2022/08/14 05:39:42;;;;;;;4.90;3.60;;;17.30;99.90;;;16.70;100.00;97011.91;4938612;28;20059;-63
2022/08/14 05:42:09;;;;;;;4.78;4.13;;;17.50;99.90;;;16.87;100.00;97016.72;4940449;28;20051;-63
2022/08/14 05:44:52;;;;;;;5.00;4.20;;;17.70;99.90;;;17.12;100.00;97023.50;4936104;28;20059;-64
2022/08/14 05:47:22;;;;;;;7.38;4.85;;;17.80;99.90;;;17.21;100.00;97014.09;4942630;28;20059;-64
2022/08/14 05:49:49;;;;;;;6.63;4.30;;;18.00;99.90;;;17.39;100.00;97006.56;4937442;29;20438;-64
2022/08/14 05:52:18;;;;;;;10.40;5.70;;;18.20;99.90;;;17.55;100.00;97001.75;4937518;28;20875;-64
2022/08/14 05:55:07;;;;;;;5.70;4.97;;;18.30;99.90;;;17.83;100.00;97006.59;4950101;28;20059;-63
2022/08/14 05:57:55;;;;;;;7.82;4.45;;;18.50;99.90;;;17.91;100.00;96999.78;4940336;28;20059;-63
2022/08/14 06:00:36;;;;;;;6.15;4.95;;;18.70;99.90;;;18.08;100.00;96989.69;4946868;28;20580;-63
2022/08/14 06:03:13;;;;;;;7.93;5.07;;;18.90;99.90;;;18.19;100.00;96989.63;4941966;29;20055;-64
2022/08/14 06:05:41;;;;;;;6.35;4.40;;;19.10;99.90;;;18.26;100.00;96982.91;4942493;28;20146;-65
2022/08/14 06:08:26;;;;;;;9.30;4.78;;;19.20;99.90;;;18.49;100.00;96980.97;4954772;28;20572;-65
2022/08/14 06:11:08;;;;;;;6.25;4.88;;;19.30;99.90;;;18.55;100.00;96969.13;4939269;28;20056;-65
2022/08/14 06:13:42;;;;;;;6.20;4.40;;;19.50;99.90;;;18.79;100.00;96963.59;4940210;28;20100;-64
2022/08/14 06:16:15;;;;;;;6.35;4.60;;;19.70;99.90;;;19.01;100.00;96967.84;4933958;29;20178;-65
2022/08/14 06:18:47;;;;;;;6.22;4.35;;;19.90;99.90;;;19.11;100.00;96968.72;4951274;28;20469;-65
2022/08/14 06:21:18;;;;;;;6.43;4.47;;;20.10;99.90;;;19.23;100.00;96956.28;4936152;28;20106;-64
2022/08/14 06:23:45;;;;;;;7.28;4.68;;;20.20;99.90;;;19.30;100.00;96957.41;4935938;29;20075;-64
2022/08/14 06:26:15;;;;;;;5.93;4.03;;;20.30;99.90;;;19.56;100.00;96952.47;4936858;28;20380;-64
2022/08/14 06:28:46;;;;;;;7.15;4.40;;;20.50;99.90;;;19.64;100.00;96950.00;4937554;29;20075;-64
2022/08/14 06:31:19;;;;;;;4.87;3.93;;;20.60;99.90;;;19.72;100.00;96940.59;4934354;29;20059;-64
2022/08/14 06:33:47;;;;;;;8.30;5.07;;;20.70;99.90;;;19.83;100.00;96938.66;4937318;29;20342;-65
2022/08/14 06:36:37;;;;;;;5.05;3.92;;;20.70;99.90;;;20.01;100.00;96936.16;4952516;28;20569;-65
2022/08/14 06:39:05;;;;;;;7.07;3.88;;;21.00;99.90;;;20.11;100.00;96917.69;4944785;28;20051;-65
2022/08/14 06:41:39;;;;;;;7.20;4.30;;;21.10;99.90;;;20.21;100.00;96908.00;4944659;28;20046;-64
2022/08/14 06:44:29;;;;;;;6.90;3.70;;;21.30;99.90;;;20.42;100.00;96912.25;4954092;28;20063;-64
2022/08/14 06:47:01;;;;;;;4.93;3.60;;;21.50;99.90;;;20.57;100.00;96908.22;4941723;28;20055;-65
2022/08/14 06:49:29;;;;;;;4.82;3.33;;;21.60;99.90;;;20.72;100.00;96905.91;4940821;29;20062;-65
2022/08/14 06:52:06;;;;;;;6.97;3.90;;;21.70;99.90;;;20.86;100.00;96905.44;4936785;28;20158;-65
2022/08/14 06:54:34;;;;;;;6.40;3.63;;;21.80;99.90;;;20.81;100.00;96905.03;4937694;28;20055;-65
2022/08/14 06:57:07;;;;;;;5.22;3.42;;;22.00;99.90;;;21.16;100.00;96905.28;4945655;29;20082;-64
2022/08/14 06:59:34;;;;;;;4.72;3.97;;;22.20;99.90;;;21.21;100.00;96900.38;4944076;28;20054;-65
2022/08/14 07:07:40;;;;;;;6.10;3.40;;;22.50;99.90;;;21.42;100.00;96901.00;4943023;28;20077;-65
2022/08/14 07:10:08;;;;;;;6.45;4.22;;;22.60;99.90;;;21.28;100.00;96901.47;4945573;28;20158;-64
2022/08/14 07:12:44;;;;;;;7.78;3.72;;;22.50;99.90;;;21.40;100.00;96899.44;4942377;28;20051;-65
2022/08/14 07:15:32;;;;;;;6.00;4.00;;;22.60;99.90;;;21.48;100.00;96899.53;4941936;28;20582;-65
2022/08/14 07:18:09;;;;;;;6.03;3.67;;;22.70;99.90;;;21.54;100.00;96903.41;4954931;28;20053;-65
2022/08/14 07:20:38;;;;;;;5.70;3.95;;;22.80;99.90;;;21.76;100.00;96902.97;4942560;29;20468;-64
2022/08/14 07:23:08;;;;;;;7.68;4.40;;;22.80;99.90;;;21.49;100.00;96891.47;4954649;28;20047;-64
2022/08/14 07:25:49;;;;;;;8.15;4.32;;;22.90;99.90;;;21.75;100.00;96896.00;4942796;28;20052;-65
2022/08/14 07:28:25;;;;;;;5.80;4.40;;;23.00;99.90;;;21.67;100.00;96890.66;4941811;28;20520;-65
2022/08/14 07:30:56;;;;;;;6.97;4.28;;;23.10;99.80;;;22.06;100.00;96895.59;4940720;29;20592;-65
2022/08/14 07:33:41;;;;;;;6.82;4.18;;;23.20;99.90;;;22.32;100.00;96888.53;4941610;28;20059;-65
2022/08/14 07:36:14;;;;;;;5.75;4.55;;;23.30;99.60;;;22.32;100.00;96885.06;4944950;28;20058;-65
2022/08/14 07:38:53;;;;;;;6.22;4.78;;;23.50;99.60;;;22.31;100.00;96883.41;4942725;28;20117;-65
2022/08/14 07:41:24;;;;;;;8.98;4.53;;;23.60;99.00;;;22.43;100.00;96876.88;4943303;29;20058;-65
2022/08/14 07:44:02;;;;;;;6.13;4.53;;;23.70;99.10;;;22.42;100.00;96880.50;4943776;28;20089;-65
2022/08/14 07:46:49;;;;;;;6.80;4.60;;;23.80;98.80;;;22.62;100.00;96872.34;4955712;28;20050;-65
2022/08/14 07:49:18;;;;;;;10.88;3.30;;;23.80;98.40;;;22.87;100.00;96865.31;4951285;28;20162;-65
2022/08/14 07:51:45;;;;;;;4.03;3.13;;;23.90;97.10;;;23.10;100.00;96869.06;4940238;28;20061;-64
2022/08/14 07:54:17;;;;;;;4.97;3.38;;;24.00;96.40;;;23.23;100.00;96873.09;4956524;28;20531;-65
2022/08/14 07:56:58;;;;;;;6.43;4.13;;;24.00;96.20;;;23.28;100.00;96886.66;4937230;29;20043;-65
2022/08/14 07:59:27;;;;;;;8.35;3.30;;;24.20;96.50;;;23.49;100.00;96880.91;4940029;29;20170;-65
2022/08/14 08:02:11;;;;;;;4.10;3.50;;;24.40;96.00;;;23.78;100.00;96878.63;4952261;28;20508;-65
2022/08/14 08:04:54;;;;;;;4.55;3.30;;;24.60;95.90;;;23.90;100.00;96886.25;4943910;28;20054;-64
2022/08/14 08:07:30;;;;;;;6.03;3.38;;;24.80;95.20;;;23.86;100.00;96874.38;4940053;28;20069;-65
2022/08/14 08:09:58;;;;;;;;;;;24.80;94.70;;;23.93;100.00;96878.81;4957186;28;20067;-64
2022/08/14 08:12:30;;;;;;;4.50;3.28;;;24.90;94.70;;;24.08;100.00;96868.34;4943936;28;19926;-65
2022/08/14 08:14:59;;;;;;;4.50;3.13;;;25.00;94.50;;;24.21;100.00;96868.69;4953097;28;20517;-65
2022/08/14 08:17:36;;;;;;;8.88;3.45;;;25.20;93.80;;;24.23;100.00;96873.00;4940953;28;20130;-65
2022/08/14 08:20:16;;;;;;;7.13;3.20;;;25.40;93.50;;;24.72;100.00;96870.22;4942213;28;20059;-64
2022/08/14 08:22:48;;;;;;;5.28;3.08;;;25.60;93.40;;;24.73;100.00;96871.91;4939734;28;20059;-65
2022/08/14 08:25:23;;;;;;;4.10;2.83;;;25.80;93.30;;;25.08;100.00;96864.44;4951539;28;20143;-65
2022/08/14 08:27:59;;;;;;;4.03;2.50;;;26.00;92.90;;;25.00;100.00;96868.78;4936888;29;20051;-65
2022/08/14 08:30:39;;;;;;;3.92;2.25;;;26.00;91.40;;;25.56;100.00;96865.19;4939308;28;20055;-65
2022/08/14 08:33:18;;;;;;;2.72;1.80;;;26.20;91.90;;;25.83;100.00;96866.47;4940499;28;20058;-65
2022/08/14 08:35:45;;;;;;;4.32;2.30;;;26.50;90.80;;;26.09;100.00;96879.38;4943935;28;20055;-64
2022/08/14 08:38:22;;;;;;;4.25;3.03;;;26.70;91.10;;;25.94;100.00;96876.72;4953540;28;20709;-64
2022/08/14 08:41:09;;;;;;;5.03;2.63;;;27.00;90.30;;;26.65;100.00;96868.38;4941324;29;20472;-64
2022/08/14 08:43:38;;;;;;;4.20;2.50;;;27.40;90.50;;;26.47;100.00;96864.22;4941782;28;20122;-64
2022/08/14 08:46:19;;;;;;;4.30;2.00;;;27.50;87.30;;;26.44;100.00;96863.78;4938778;28;20051;-64
2022/08/14 08:48:58;;;;;;;5.18;2.58;;;27.50;86.10;;;26.21;100.00;96864.66;4953211;28;20051;-65
2022/08/14 08:51:30;;;;;;;4.10;2.50;;;27.90;88.00;;;27.06;100.00;96857.25;4956021;28;20043;-65
2022/08/14 08:54:10;;;;;;;3.33;2.13;;;28.30;87.10;;;27.34;100.00;96852.03;4940380;28;20106;-65
2022/08/14 08:56:48;;;;;;;3.42;2.40;;;28.50;84.80;;;27.77;100.00;96848.56;4941698;28;20158;-64
2022/08/14 08:59:21;;;;;;;2.80;2.22;;;28.80;84.90;;;28.48;100.00;96837.84;4957566;28;20135;-64
2022/08/14 09:02:04;;;;;;;1.92;1.40;;;29.00;83.20;;;28.32;100.00;96825.63;4941854;28;20051;-65
2022/08/14 09:04:46;;;;;;;4.95;1.88;;;29.00;81.00;;;28.45;100.00;96822.22;4956259;28;20131;-64
2022/08/14 09:07:26;;;;;;;8.00;1.70;;;29.00;81.80;;;28.83;100.00;96819.97;4954994;28;20051;-64
2022/08/14 09:09:55;;;;;;;2.47;1.10;;;29.10;80.30;;;28.83;100.00;96827.13;4943906;28;20197;-64
2022/08/14 09:12:28;;;;;;;2.42;1.23;;;29.30;76.40;;;29.17;100.00;96826.25;4955307;28;20074;-65
2022/08/14 09:15:05;;;;;;;1.92;1.10;;;29.50;76.40;;;30.14;96.76;96824.13;4946560;28;20134;-65
2022/08/14 09:17:42;;;;;;;1.33;0.80;;;29.90;74.60;;;31.22;92.21;96831.66;4955753;28;20466;-64
2022/08/14 09:20:11;;;;;;;2.05;0.90;;;30.30;74.40;;;30.69;83.53;96823.81;4938711;28;20050;-65
2022/08/14 09:22:42;;;;;;;4.50;0.90;;;30.30;70.80;;;30.25;84.23;96836.06;4938813;28;20047;-64
2022/08/14 09:25:16;;;;;;;1.27;0.70;;;30.30;69.60;;;31.56;87.20;96845.72;4939390;28;20051;-64
2022/08/14 09:27:45;;;;;;;2.08;0.90;;;30.70;71.20;;;31.43;83.30;96847.47;4957680;28;20154;-65
2022/08/14 09:30:13;;;;;;;2.70;0.85;;;31.10;70.20;;;31.46;78.92;96844.34;4942366;28;20141;-65
2022/08/14 09:33:05;;;;;;;2.28;0.90;;;31.20;68.60;;;32.03;77.55;96840.88;4942274;28;20427;-65
2022/08/14 09:36:11;;;;;;;3.33;0.90;;;31.10;68.80;;;32.42;76.39;96837.00;4937610;28;20091;-65
2022/08/14 09:39:25;;;;;;;2.58;1.00;;;31.40;67.60;;;32.68;70.25;96824.34;4940813;28;20578;-64
2022/08/14 09:42:29;;;;;;;1.33;0.70;;;31.70;66.60;;;33.45;74.62;96823.78;4939982;28;20043;-64
2022/08/14 09:45:22;;;;;;;1.05;0.63;;;31.90;68.40;;;33.66;62.88;96828.66;4939996;28;20039;-66
2022/08/14 09:47:54;;;;;;;3.05;0.70;;;32.40;64.90;;;33.30;65.06;96819.66;4953818;28;20047;-64
2022/08/14 09:50:22;;;;;;;2.33;0.70;;;32.50;64.30;;;32.62;64.63;96823.38;4953784;28;20074;-64
2022/08/14 09:52:57;;;;;;;1.27;0.77;;;32.40;63.50;;;33.34;66.91;96811.94;4939254;28;20509;-64
2022/08/14 09:55:26;;;;;;;3.88;0.70;;;32.50;64.70;;;32.41;66.28;96808.50;4956633;28;20059;-63
2022/08/14 09:58:18;;;;;;;2.03;0.70;;;32.50;63.90;;;33.97;65.20;96802.50;4936859;28;20070;-64
2022/08/14 10:01:00;;;;;;;2.08;0.80;;;32.70;64.30;;;33.27;60.19;96795.06;4939463;28;20075;-63
2022/08/14 10:03:36;;;;;;;2.80;0.80;;;32.70;62.30;;;33.30;60.65;96778.47;4939386;28;20063;-64
2022/08/14 10:06:12;;;;;;;3.65;0.88;;;32.70;62.00;;;33.91;61.96;96773.81;4938162;28;20407;-64
2022/08/14 10:08:49;;;;;;;3.50;0.70;;;32.70;63.30;;;33.92;62.57;96776.28;4938605;28;20058;-64
2022/08/14 10:11:36;;;;;;;2.28;0.93;;;32.90;64.00;;;34.28;58.75;96776.28;4951159;28;20071;-64
2022/08/14 10:14:20;;;;;;;3.28;0.82;;;33.30;62.30;;;33.18;60.22;96783.81;4941764;28;20462;-64
2022/08/14 10:17:04;;;;;;;2.33;0.82;;;33.10;61.50;;;33.43;59.92;96789.03;4953658;28;20055;-64
2022/08/14 10:19:34;;;;;;;1.63;0.82;;;33.00;61.60;;;32.91;60.40;96777.94;4939857;28;20055;-64
2022/08/14 10:22:09;;;;;;;3.63;0.73;;;32.90;61.20;;;34.19;60.09;96762.38;4941520;28;20043;-64
2022/08/14 10:24:57;;;;;;;2.70;0.80;;;33.20;61.90;;;33.70;56.01;96767.94;4940062;28;20043;-64
2022/08/14 10:27:27;;;;;;;2.00;0.90;;;33.30;60.20;;;33.48;57.46;96769.53;4940010;28;20065;-64
2022/08/14 10:29:59;;;;;;;1.67;0.90;;;33.20;60.60;;;32.84;58.70;96769.16;4940985;28;20055;-63
2022/08/14 10:32:27;;;;;;;1.50;0.90;;;33.10;60.50;;;33.23;60.89;96746.31;4954106;28;20090;-64
2022/08/14 10:35:15;;;;;;;2.05;0.90;;;33.30;60.90;;;33.23;60.51;96740.94;4939318;28;20055;-65
2022/08/14 10:37:49;;;;;;;1.40;0.90;;;33.20;60.90;;;33.11;58.69;96740.06;4940865;28;20055;-64
2022/08/14 10:40:31;;;;;;;2.30;0.90;;;33.10;60.30;;;33.66;60.36;96739.84;4938445;28;20150;-64
2022/08/14 10:43:25;;;;;;;1.65;0.90;;;33.30;61.00;;;33.27;58.58;96738.59;4951353;28;20055;-64
2022/08/14 10:46:00;;;;;;;1.55;0.90;;;33.40;60.30;;;33.66;58.59;96722.91;4935187;28;20058;-65
2022/08/14 10:49:03;;;;;;;1.58;0.77;;;33.30;60.60;;;33.47;56.91;96724.84;4949383;28;20402;-65
2022/08/14 10:51:33;;;;;;;4.22;1.00;;;33.30;60.30;;;33.39;57.18;96719.78;4937226;28;20098;-65
2022/08/14 10:54:07;;;;;;;4.18;1.00;;;33.10;60.50;;;33.98;58.99;96723.34;4939127;28;20055;-66
2022/08/14 10:56:56;;;;;;;1.98;0.90;;;33.30;60.90;;;32.82;59.47;96706.75;4939852;28;20453;-65
2022/08/14 10:59:23;;;;;;;2.65;0.90;;;33.30;59.90;;;33.86;61.58;96723.38;4941198;28;20083;-65
2022/08/14 11:02:00;;;;;;;3.25;0.90;;;33.40;61.80;;;33.96;56.78;96712.00;4941300;28;20056;-65
2022/08/14 11:04:29;;;;;;;4.90;0.98;;;33.60;60.30;;;34.41;55.50;96713.25;4942546;28;20081;-66
2022/08/14 11:06:57;;;;;;;1.83;0.80;;;33.60;59.80;;;33.48;58.46;96721.09;4941175;28;20054;-65
2022/08/14 11:09:24;;;;;;;2.00;1.10;;;33.70;59.70;;;32.92;61.96;96712.41;4939745;28;20083;-65
2022/08/14 11:11:58;;;;;;;1.38;0.90;;;33.30;60.20;;;33.36;59.12;96710.31;4955517;28;20110;-65